sensor_id;sensor_type;location;lat;lon;timestamp;temperature;humidity
39095;DHT22;24840;47.508;19.376;2023-04-15T00:02:23;4.60;99.90
39095;DHT22;24840;47.508;19.376;2023-04-15T00:04:49;4.70;99.90
39095;DHT22;24840;47.508;19.376;2023-04-15T00:07:15;4.60;99.90
39095;DHT22;24840;47.508;19.376;2023-04-15T00:09:42;4.70;99.90
39095;DHT22;24840;47.508;19.376;2023-04-15T00:12:10;4.70;99.90
39095;DHT22;24840;47.508;19.376;2023-04-15T00:14:36;4.80;99.90
39095;DHT22;24840;47.508;19.376;2023-04-15T00:17:02;4.80;99.90
39095;DHT22;24840;47.508;19.376;2023-04-15T00:19:29;4.80;99.90
39095;DHT22;24840;47.508;19.376;2023-04-15T00:21:55;4.90;99.90
39095;DHT22;24840;47.508;19.376;2023-04-15T00:24:22;5.00;99.90
39095;DHT22;24840;47.508;19.376;2023-04-15T00:26:48;5.00;99.90
39095;DHT22;24840;47.508;19.376;2023-04-15T00:29:13;5.00;99.90
39095;DHT22;24840;47.508;19.376;2023-04-15T00:31:39;5.00;99.90
39095;DHT22;24840;47.508;19.376;2023-04-15T00:34:06;5.10;99.90
39095;DHT22;24840;47.508;19.376;2023-04-15T00:36:32;5.00;99.90
39095;DHT22;24840;47.508;19.376;2023-04-15T00:38:59;5.00;99.90
39095;DHT22;24840;47.508;19.376;2023-04-15T00:41:25;4.90;99.90
39095;DHT22;24840;47.508;19.376;2023-04-15T00:43:51;5.00;99.90
39095;DHT22;24840;47.508;19.376;2023-04-15T00:46:18;5.10;99.90
39095;DHT22;24840;47.508;19.376;2023-04-15T00:48:46;5.10;99.90
39095;DHT22;24840;47.508;19.376;2023-04-15T00:51:13;5.10;99.90
39095;DHT22;24840;47.508;19.376;2023-04-15T00:53:39;5.20;99.90
39095;DHT22;24840;47.508;19.376;2023-04-15T00:56:06;5.20;99.90
39095;DHT22;24840;47.508;19.376;2023-04-15T00:58:31;5.30;99.90
39095;DHT22;24840;47.508;19.376;2023-04-15T01:00:58;5.30;99.90
39095;DHT22;24840;47.508;19.376;2023-04-15T01:03:24;5.30;99.90
39095;DHT22;24840;47.508;19.376;2023-04-15T01:05:50;5.30;99.90
39095;DHT22;24840;47.508;19.376;2023-04-15T01:08:31;5.30;99.90
39095;DHT22;24840;47.508;19.376;2023-04-15T01:10:58;5.30;99.90
39095;DHT22;24840;47.508;19.376;2023-04-15T01:13:25;5.30;99.90
39095;DHT22;24840;47.508;19.376;2023-04-15T01:15:52;5.40;99.90
39095;DHT22;24840;47.508;19.376;2023-04-15T01:18:18;5.30;99.90
39095;DHT22;24840;47.508;19.376;2023-04-15T01:20:44;5.40;99.90
39095;DHT22;24840;47.508;19.376;2023-04-15T01:23:10;5.40;99.90
39095;DHT22;24840;47.508;19.376;2023-04-15T01:25:36;5.40;99.90
39095;DHT22;24840;47.508;19.376;2023-04-15T01:28:02;5.40;99.90
39095;DHT22;24840;47.508;19.376;2023-04-15T01:30:33;5.50;99.90
39095;DHT22;24840;47.508;19.376;2023-04-15T01:32:59;5.50;99.90
39095;DHT22;24840;47.508;19.376;2023-04-15T01:35:25;5.40;99.90
39095;DHT22;24840;47.508;19.376;2023-04-15T01:37:52;5.40;99.90
39095;DHT22;24840;47.508;19.376;2023-04-15T01:40:19;5.30;99.90
39095;DHT22;24840;47.508;19.376;2023-04-15T01:42:45;5.40;99.90
39095;DHT22;24840;47.508;19.376;2023-04-15T01:45:11;5.50;99.90
39095;DHT22;24840;47.508;19.376;2023-04-15T01:47:38;5.40;99.90
39095;DHT22;24840;47.508;19.376;2023-04-15T01:50:04;5.50;99.90
39095;DHT22;24840;47.508;19.376;2023-04-15T01:52:31;5.50;99.90
39095;DHT22;24840;47.508;19.376;2023-04-15T01:54:57;5.50;99.90
39095;DHT22;24840;47.508;19.376;2023-04-15T01:57:22;5.50;99.90
39095;DHT22;24840;47.508;19.376;2023-04-15T01:59:48;5.50;99.90
39095;DHT22;24840;47.508;19.376;2023-04-15T02:02:14;5.50;99.90
39095;DHT22;24840;47.508;19.376;2023-04-15T02:04:39;5.50;99.90
39095;DHT22;24840;47.508;19.376;2023-04-15T02:07:05;5.50;99.90
39095;DHT22;24840;47.508;19.376;2023-04-15T02:09:31;5.50;99.90
39095;DHT22;24840;47.508;19.376;2023-04-15T02:11:57;5.50;99.90
39095;DHT22;24840;47.508;19.376;2023-04-15T02:14:23;5.60;99.90
39095;DHT22;24840;47.508;19.376;2023-04-15T02:16:48;5.70;99.90
39095;DHT22;24840;47.508;19.376;2023-04-15T02:19:14;5.70;99.90
39095;DHT22;24840;47.508;19.376;2023-04-15T02:21:40;5.70;99.90
39095;DHT22;24840;47.508;19.376;2023-04-15T02:24:06;5.70;99.90
39095;DHT22;24840;47.508;19.376;2023-04-15T02:26:31;5.70;99.90
39095;DHT22;24840;47.508;19.376;2023-04-15T02:28:58;5.70;99.90
39095;DHT22;24840;47.508;19.376;2023-04-15T02:31:24;5.70;99.90
39095;DHT22;24840;47.508;19.376;2023-04-15T02:33:50;5.80;99.90
39095;DHT22;24840;47.508;19.376;2023-04-15T02:36:16;5.80;99.90
39095;DHT22;24840;47.508;19.376;2023-04-15T02:38:42;5.80;99.90
39095;DHT22;24840;47.508;19.376;2023-04-15T02:41:09;5.90;99.90
39095;DHT22;24840;47.508;19.376;2023-04-15T02:43:35;5.90;99.90
39095;DHT22;24840;47.508;19.376;2023-04-15T02:46:00;5.90;99.90
39095;DHT22;24840;47.508;19.376;2023-04-15T02:48:26;6.00;99.90
39095;DHT22;24840;47.508;19.376;2023-04-15T02:50:52;6.00;99.90
39095;DHT22;24840;47.508;19.376;2023-04-15T02:53:18;6.00;99.90
39095;DHT22;24840;47.508;19.376;2023-04-15T02:55:44;6.00;99.90
39095;DHT22;24840;47.508;19.376;2023-04-15T02:58:10;6.00;99.90
39095;DHT22;24840;47.508;19.376;2023-04-15T03:00:36;6.00;99.90
39095;DHT22;24840;47.508;19.376;2023-04-15T03:03:03;6.10;99.90
39095;DHT22;24840;47.508;19.376;2023-04-15T03:05:30;6.10;99.90
39095;DHT22;24840;47.508;19.376;2023-04-15T03:07:55;6.10;99.90
39095;DHT22;24840;47.508;19.376;2023-04-15T03:10:21;6.20;99.90
39095;DHT22;24840;47.508;19.376;2023-04-15T03:12:47;6.20;99.90
39095;DHT22;24840;47.508;19.376;2023-04-15T03:15:13;6.20;99.90
39095;DHT22;24840;47.508;19.376;2023-04-15T03:17:39;6.20;99.90
39095;DHT22;24840;47.508;19.376;2023-04-15T03:20:06;6.30;99.90
39095;DHT22;24840;47.508;19.376;2023-04-15T03:22:32;6.20;99.90
39095;DHT22;24840;47.508;19.376;2023-04-15T03:24:58;6.30;99.90
39095;DHT22;24840;47.508;19.376;2023-04-15T03:27:24;6.30;99.90
39095;DHT22;24840;47.508;19.376;2023-04-15T03:29:50;6.30;99.90
39095;DHT22;24840;47.508;19.376;2023-04-15T03:32:16;6.20;99.90
39095;DHT22;24840;47.508;19.376;2023-04-15T03:34:42;6.20;99.90
39095;DHT22;24840;47.508;19.376;2023-04-15T03:37:08;6.20;99.90
39095;DHT22;24840;47.508;19.376;2023-04-15T03:39:34;6.30;99.90
39095;DHT22;24840;47.508;19.376;2023-04-15T03:42:00;6.30;99.90
39095;DHT22;24840;47.508;19.376;2023-04-15T03:44:26;6.30;99.90
39095;DHT22;24840;47.508;19.376;2023-04-15T03:46:53;6.20;99.90
39095;DHT22;24840;47.508;19.376;2023-04-15T03:49:19;6.20;99.90
39095;DHT22;24840;47.508;19.376;2023-04-15T03:51:45;6.10;99.90
39095;DHT22;24840;47.508;19.376;2023-04-15T03:54:11;6.20;99.90
39095;DHT22;24840;47.508;19.376;2023-04-15T03:56:39;6.20;99.90
39095;DHT22;24840;47.508;19.376;2023-04-15T03:59:05;6.20;99.90
39095;DHT22;24840;47.508;19.376;2023-04-15T04:01:31;6.30;99.90
39095;DHT22;24840;47.508;19.376;2023-04-15T04:03:57;6.10;99.90
39095;DHT22;24840;47.508;19.376;2023-04-15T04:06:22;6.10;99.90
39095;DHT22;24840;47.508;19.376;2023-04-15T04:08:48;6.10;99.90
39095;DHT22;24840;47.508;19.376;2023-04-15T04:11:14;6.00;99.90
39095;DHT22;24840;47.508;19.376;2023-04-15T04:13:39;6.10;99.90
39095;DHT22;24840;47.508;19.376;2023-04-15T04:16:06;6.10;99.90
39095;DHT22;24840;47.508;19.376;2023-04-15T04:18:32;6.10;99.90
39095;DHT22;24840;47.508;19.376;2023-04-15T04:20:58;6.10;99.90
39095;DHT22;24840;47.508;19.376;2023-04-15T04:23:24;6.20;99.90
39095;DHT22;24840;47.508;19.376;2023-04-15T04:25:50;6.20;99.90
39095;DHT22;24840;47.508;19.376;2023-04-15T04:28:17;6.30;99.90
39095;DHT22;24840;47.508;19.376;2023-04-15T04:30:43;6.30;99.90
39095;DHT22;24840;47.508;19.376;2023-04-15T04:33:08;6.40;99.90
39095;DHT22;24840;47.508;19.376;2023-04-15T04:35:34;6.40;99.90
39095;DHT22;24840;47.508;19.376;2023-04-15T04:38:02;6.40;99.90
39095;DHT22;24840;47.508;19.376;2023-04-15T04:40:28;6.50;99.90
39095;DHT22;24840;47.508;19.376;2023-04-15T04:42:54;6.60;99.90
39095;DHT22;24840;47.508;19.376;2023-04-15T04:45:20;6.70;99.90
39095;DHT22;24840;47.508;19.376;2023-04-15T04:47:46;6.60;99.90
39095;DHT22;24840;47.508;19.376;2023-04-15T04:50:12;6.70;99.90
39095;DHT22;24840;47.508;19.376;2023-04-15T04:52:38;6.60;99.90
39095;DHT22;24840;47.508;19.376;2023-04-15T04:55:04;6.60;99.90
39095;DHT22;24840;47.508;19.376;2023-04-15T04:57:30;6.50;99.90
39095;DHT22;24840;47.508;19.376;2023-04-15T04:59:56;6.60;99.90
39095;DHT22;24840;47.508;19.376;2023-04-15T05:02:22;6.50;99.90
39095;DHT22;24840;47.508;19.376;2023-04-15T05:04:48;6.60;99.90
39095;DHT22;24840;47.508;19.376;2023-04-15T05:07:14;6.60;99.90
39095;DHT22;24840;47.508;19.376;2023-04-15T05:09:40;6.60;99.90
39095;DHT22;24840;47.508;19.376;2023-04-15T05:12:06;6.70;99.90
39095;DHT22;24840;47.508;19.376;2023-04-15T05:14:33;6.70;99.90
39095;DHT22;24840;47.508;19.376;2023-04-15T05:16:59;6.70;99.90
39095;DHT22;24840;47.508;19.376;2023-04-15T05:19:25;6.70;99.90
39095;DHT22;24840;47.508;19.376;2023-04-15T05:21:52;6.80;99.90
39095;DHT22;24840;47.508;19.376;2023-04-15T05:24:17;6.80;99.90
39095;DHT22;24840;47.508;19.376;2023-04-15T05:26:43;6.90;99.90
39095;DHT22;24840;47.508;19.376;2023-04-15T05:29:09;7.00;99.90
39095;DHT22;24840;47.508;19.376;2023-04-15T05:31:35;7.00;99.90
39095;DHT22;24840;47.508;19.376;2023-04-15T05:34:01;7.10;99.90
39095;DHT22;24840;47.508;19.376;2023-04-15T05:36:27;7.10;99.90
39095;DHT22;24840;47.508;19.376;2023-04-15T05:38:53;7.10;99.90
39095;DHT22;24840;47.508;19.376;2023-04-15T05:41:19;7.10;99.90
39095;DHT22;24840;47.508;19.376;2023-04-15T05:43:45;7.10;99.90
39095;DHT22;24840;47.508;19.376;2023-04-15T05:46:11;7.30;99.90
39095;DHT22;24840;47.508;19.376;2023-04-15T05:48:36;7.40;99.90
39095;DHT22;24840;47.508;19.376;2023-04-15T05:51:02;7.50;99.90
39095;DHT22;24840;47.508;19.376;2023-04-15T05:53:28;7.50;99.90
39095;DHT22;24840;47.508;19.376;2023-04-15T05:55:54;7.50;99.90
39095;DHT22;24840;47.508;19.376;2023-04-15T05:58:20;7.50;99.90
39095;DHT22;24840;47.508;19.376;2023-04-15T06:00:45;7.60;99.90
39095;DHT22;24840;47.508;19.376;2023-04-15T06:03:11;7.70;99.90
39095;DHT22;24840;47.508;19.376;2023-04-15T06:05:37;7.80;99.90
39095;DHT22;24840;47.508;19.376;2023-04-15T06:08:03;8.00;99.90
39095;DHT22;24840;47.508;19.376;2023-04-15T06:10:29;8.30;99.90
39095;DHT22;24840;47.508;19.376;2023-04-15T06:12:55;8.50;99.90
39095;DHT22;24840;47.508;19.376;2023-04-15T06:15:21;8.60;99.90
39095;DHT22;24840;47.508;19.376;2023-04-15T06:17:47;8.40;99.90
39095;DHT22;24840;47.508;19.376;2023-04-15T06:20:13;8.30;99.90
39095;DHT22;24840;47.508;19.376;2023-04-15T06:22:38;8.30;99.90
39095;DHT22;24840;47.508;19.376;2023-04-15T06:25:05;8.70;99.90
39095;DHT22;24840;47.508;19.376;2023-04-15T06:27:32;9.00;99.90
39095;DHT22;24840;47.508;19.376;2023-04-15T06:29:58;9.00;99.90
39095;DHT22;24840;47.508;19.376;2023-04-15T06:32:24;8.90;99.90
39095;DHT22;24840;47.508;19.376;2023-04-15T06:34:49;8.70;99.90
39095;DHT22;24840;47.508;19.376;2023-04-15T06:37:15;8.60;99.90
39095;DHT22;24840;47.508;19.376;2023-04-15T06:39:41;8.80;99.90
39095;DHT22;24840;47.508;19.376;2023-04-15T06:42:08;8.80;99.90
39095;DHT22;24840;47.508;19.376;2023-04-15T06:44:34;9.10;99.90
39095;DHT22;24840;47.508;19.376;2023-04-15T06:47:01;9.10;99.90
39095;DHT22;24840;47.508;19.376;2023-04-15T06:49:28;9.10;99.90
39095;DHT22;24840;47.508;19.376;2023-04-15T06:51:54;8.80;99.90
39095;DHT22;24840;47.508;19.376;2023-04-15T06:54:20;8.80;99.90
39095;DHT22;24840;47.508;19.376;2023-04-15T06:56:45;8.80;99.90
39095;DHT22;24840;47.508;19.376;2023-04-15T06:59:12;8.80;99.90
39095;DHT22;24840;47.508;19.376;2023-04-15T07:01:40;8.80;99.90
39095;DHT22;24840;47.508;19.376;2023-04-15T07:04:06;9.00;99.90
39095;DHT22;24840;47.508;19.376;2023-04-15T07:06:32;9.50;99.90
39095;DHT22;24840;47.508;19.376;2023-04-15T07:08:58;9.50;99.90
39095;DHT22;24840;47.508;19.376;2023-04-15T07:11:25;9.50;99.90
39095;DHT22;24840;47.508;19.376;2023-04-15T07:13:51;9.90;99.90
39095;DHT22;24840;47.508;19.376;2023-04-15T07:16:17;10.40;99.90
39095;DHT22;24840;47.508;19.376;2023-04-15T07:18:42;10.50;99.90
39095;DHT22;24840;47.508;19.376;2023-04-15T07:21:08;10.30;99.90
39095;DHT22;24840;47.508;19.376;2023-04-15T07:23:34;10.50;99.90
39095;DHT22;24840;47.508;19.376;2023-04-15T07:26:02;10.50;99.90
39095;DHT22;24840;47.508;19.376;2023-04-15T07:28:27;10.50;99.90
39095;DHT22;24840;47.508;19.376;2023-04-15T07:30:54;10.80;99.90
39095;DHT22;24840;47.508;19.376;2023-04-15T07:33:22;11.10;99.90
39095;DHT22;24840;47.508;19.376;2023-04-15T07:35:48;10.80;99.90
39095;DHT22;24840;47.508;19.376;2023-04-15T07:38:14;11.20;99.90
39095;DHT22;24840;47.508;19.376;2023-04-15T07:40:40;10.60;99.90
39095;DHT22;24840;47.508;19.376;2023-04-15T07:43:07;10.80;99.90
39095;DHT22;24840;47.508;19.376;2023-04-15T07:45:33;10.90;99.90
39095;DHT22;24840;47.508;19.376;2023-04-15T07:48:00;10.90;99.90
39095;DHT22;24840;47.508;19.376;2023-04-15T07:50:27;10.80;99.90
39095;DHT22;24840;47.508;19.376;2023-04-15T07:52:53;11.00;99.90
39095;DHT22;24840;47.508;19.376;2023-04-15T07:55:19;11.90;99.90
39095;DHT22;24840;47.508;19.376;2023-04-15T07:57:48;12.10;99.90
39095;DHT22;24840;47.508;19.376;2023-04-15T08:00:14;12.80;99.90
39095;DHT22;24840;47.508;19.376;2023-04-15T08:02:41;13.10;99.90
39095;DHT22;24840;47.508;19.376;2023-04-15T08:05:12;13.10;99.90
39095;DHT22;24840;47.508;19.376;2023-04-15T08:07:38;12.50;99.90
39095;DHT22;24840;47.508;19.376;2023-04-15T08:10:05;11.70;99.90
39095;DHT22;24840;47.508;19.376;2023-04-15T08:12:31;11.20;99.90
39095;DHT22;24840;47.508;19.376;2023-04-15T08:14:57;11.10;99.90
39095;DHT22;24840;47.508;19.376;2023-04-15T08:17:23;11.00;99.90
39095;DHT22;24840;47.508;19.376;2023-04-15T08:19:49;11.10;99.90
39095;DHT22;24840;47.508;19.376;2023-04-15T08:22:15;11.00;99.90
39095;DHT22;24840;47.508;19.376;2023-04-15T08:24:41;11.10;99.90
39095;DHT22;24840;47.508;19.376;2023-04-15T08:27:07;11.10;99.90
39095;DHT22;24840;47.508;19.376;2023-04-15T08:29:33;11.90;99.90
39095;DHT22;24840;47.508;19.376;2023-04-15T08:32:00;11.80;99.90
39095;DHT22;24840;47.508;19.376;2023-04-15T08:34:28;12.40;99.90
39095;DHT22;24840;47.508;19.376;2023-04-15T08:36:55;12.70;99.90
39095;DHT22;24840;47.508;19.376;2023-04-15T08:39:21;12.90;99.90
39095;DHT22;24840;47.508;19.376;2023-04-15T08:42:10;12.70;99.90
39095;DHT22;24840;47.508;19.376;2023-04-15T08:44:33;13.20;99.90
39095;DHT22;24840;47.508;19.376;2023-04-15T08:47:00;13.80;99.90
39095;DHT22;24840;47.508;19.376;2023-04-15T08:49:28;13.80;99.90
39095;DHT22;24840;47.508;19.376;2023-04-15T08:51:54;13.50;99.90
39095;DHT22;24840;47.508;19.376;2023-04-15T08:54:21;13.10;99.90
39095;DHT22;24840;47.508;19.376;2023-04-15T08:56:47;13.10;99.90
39095;DHT22;24840;47.508;19.376;2023-04-15T08:59:13;12.90;99.90
39095;DHT22;24840;47.508;19.376;2023-04-15T09:01:41;12.50;99.90
39095;DHT22;24840;47.508;19.376;2023-04-15T09:04:07;12.20;99.90
39095;DHT22;24840;47.508;19.376;2023-04-15T09:06:33;12.60;99.90
39095;DHT22;24840;47.508;19.376;2023-04-15T09:08:59;12.50;99.90
39095;DHT22;24840;47.508;19.376;2023-04-15T09:11:25;12.50;99.90
39095;DHT22;24840;47.508;19.376;2023-04-15T09:13:51;12.10;99.90
39095;DHT22;24840;47.508;19.376;2023-04-15T09:16:17;12.10;99.90
39095;DHT22;24840;47.508;19.376;2023-04-15T09:18:43;12.70;99.90
39095;DHT22;24840;47.508;19.376;2023-04-15T09:21:16;13.20;99.90
39095;DHT22;24840;47.508;19.376;2023-04-15T09:24:00;13.40;99.90
39095;DHT22;24840;47.508;19.376;2023-04-15T09:26:36;12.70;99.90
39095;DHT22;24840;47.508;19.376;2023-04-15T09:29:04;12.10;99.90
39095;DHT22;24840;47.508;19.376;2023-04-15T09:31:31;12.00;99.90
39095;DHT22;24840;47.508;19.376;2023-04-15T09:33:57;11.70;99.90
39095;DHT22;24840;47.508;19.376;2023-04-15T09:36:23;11.50;99.90
39095;DHT22;24840;47.508;19.376;2023-04-15T09:38:58;11.50;99.90
39095;DHT22;24840;47.508;19.376;2023-04-15T09:41:26;11.60;99.90
39095;DHT22;24840;47.508;19.376;2023-04-15T09:43:52;11.80;99.90
39095;DHT22;24840;47.508;19.376;2023-04-15T09:46:18;12.30;99.90
39095;DHT22;24840;47.508;19.376;2023-04-15T09:48:44;13.50;99.90
39095;DHT22;24840;47.508;19.376;2023-04-15T09:51:10;12.80;99.90
39095;DHT22;24840;47.508;19.376;2023-04-15T09:53:36;12.80;99.90
39095;DHT22;24840;47.508;19.376;2023-04-15T09:56:05;13.10;99.90
39095;DHT22;24840;47.508;19.376;2023-04-15T09:58:34;13.00;99.90
39095;DHT22;24840;47.508;19.376;2023-04-15T10:01:03;12.80;99.90
39095;DHT22;24840;47.508;19.376;2023-04-15T10:03:32;12.50;99.90
39095;DHT22;24840;47.508;19.376;2023-04-15T10:06:00;12.50;99.90
39095;DHT22;24840;47.508;19.376;2023-04-15T10:08:28;12.40;99.90
39095;DHT22;24840;47.508;19.376;2023-04-15T10:10:54;12.40;99.90
39095;DHT22;24840;47.508;19.376;2023-04-15T10:13:24;13.00;99.90
39095;DHT22;24840;47.508;19.376;2023-04-15T10:15:57;13.00;99.90
39095;DHT22;24840;47.508;19.376;2023-04-15T10:18:26;12.70;99.90
39095;DHT22;24840;47.508;19.376;2023-04-15T10:20:52;12.20;99.90
39095;DHT22;24840;47.508;19.376;2023-04-15T10:23:21;11.80;99.90
39095;DHT22;24840;47.508;19.376;2023-04-15T10:25:51;11.40;99.90
39095;DHT22;24840;47.508;19.376;2023-04-15T10:28:19;11.40;99.90
39095;DHT22;24840;47.508;19.376;2023-04-15T10:30:45;11.90;99.90
39095;DHT22;24840;47.508;19.376;2023-04-15T10:33:13;11.80;99.90
39095;DHT22;24840;47.508;19.376;2023-04-15T10:35:41;12.30;99.90
39095;DHT22;24840;47.508;19.376;2023-04-15T10:38:33;12.60;99.90
39095;DHT22;24840;47.508;19.376;2023-04-15T10:41:15;12.60;99.90
39095;DHT22;24840;47.508;19.376;2023-04-15T10:43:52;12.40;99.90
39095;DHT22;24840;47.508;19.376;2023-04-15T10:46:23;12.60;99.90
39095;DHT22;24840;47.508;19.376;2023-04-15T10:48:51;12.50;99.90
39095;DHT22;24840;47.508;19.376;2023-04-15T10:51:30;12.20;99.90
39095;DHT22;24840;47.508;19.376;2023-04-15T10:54:00;12.00;99.90
39095;DHT22;24840;47.508;19.376;2023-04-15T10:56:28;11.70;99.90
39095;DHT22;24840;47.508;19.376;2023-04-15T10:58:54;11.60;99.90
39095;DHT22;24840;47.508;19.376;2023-04-15T11:01:20;11.60;99.90
39095;DHT22;24840;47.508;19.376;2023-04-15T11:03:49;11.50;99.90
39095;DHT22;24840;47.508;19.376;2023-04-15T11:06:16;11.60;99.90
39095;DHT22;24840;47.508;19.376;2023-04-15T11:08:58;11.80;99.90
39095;DHT22;24840;47.508;19.376;2023-04-15T11:14:33;12.70;99.90
39095;DHT22;24840;47.508;19.376;2023-04-15T11:17:00;12.30;99.90
39095;DHT22;24840;47.508;19.376;2023-04-15T11:19:26;12.40;99.90
39095;DHT22;24840;47.508;19.376;2023-04-15T11:22:09;12.50;99.90
39095;DHT22;24840;47.508;19.376;2023-04-15T11:24:35;12.40;99.90
39095;DHT22;24840;47.508;19.376;2023-04-15T11:27:01;12.00;99.90
39095;DHT22;24840;47.508;19.376;2023-04-15T11:29:30;12.00;99.90
39095;DHT22;24840;47.508;19.376;2023-04-15T11:32:08;12.00;99.90
39095;DHT22;24840;47.508;19.376;2023-04-15T11:34:34;12.20;99.90
39095;DHT22;24840;47.508;19.376;2023-04-15T11:37:05;12.30;99.90
39095;DHT22;24840;47.508;19.376;2023-04-15T11:39:32;12.20;99.90
39095;DHT22;24840;47.508;19.376;2023-04-15T11:41:58;12.60;99.90
39095;DHT22;24840;47.508;19.376;2023-04-15T11:44:23;12.40;99.90
39095;DHT22;24840;47.508;19.376;2023-04-15T11:46:49;12.30;99.90
39095;DHT22;24840;47.508;19.376;2023-04-15T11:49:28;12.10;99.90
39095;DHT22;24840;47.508;19.376;2023-04-15T11:51:59;12.40;99.90
39095;DHT22;24840;47.508;19.376;2023-04-15T11:54:25;12.70;99.90
39095;DHT22;24840;47.508;19.376;2023-04-15T11:56:51;12.70;99.90
39095;DHT22;24840;47.508;19.376;2023-04-15T11:59:20;12.80;99.90
39095;DHT22;24840;47.508;19.376;2023-04-15T12:01:46;12.50;99.90
39095;DHT22;24840;47.508;19.376;2023-04-15T12:04:17;12.60;99.90
39095;DHT22;24840;47.508;19.376;2023-04-15T12:06:47;12.70;99.90
39095;DHT22;24840;47.508;19.376;2023-04-15T12:09:15;12.60;99.90
39095;DHT22;24840;47.508;19.376;2023-04-15T12:11:50;12.60;99.90
39095;DHT22;24840;47.508;19.376;2023-04-15T12:16:56;12.30;99.90
39095;DHT22;24840;47.508;19.376;2023-04-15T12:22:15;13.00;99.90
39095;DHT22;24840;47.508;19.376;2023-04-15T12:24:42;13.00;99.90
39095;DHT22;24840;47.508;19.376;2023-04-15T12:27:12;12.70;99.90
39095;DHT22;24840;47.508;19.376;2023-04-15T12:29:40;12.90;99.60
39095;DHT22;24840;47.508;19.376;2023-04-15T12:32:12;12.90;99.90
39095;DHT22;24840;47.508;19.376;2023-04-15T12:37:08;13.10;99.90
39095;DHT22;24840;47.508;19.376;2023-04-15T12:39:36;12.80;99.90
39095;DHT22;24840;47.508;19.376;2023-04-15T12:42:03;12.80;99.90
39095;DHT22;24840;47.508;19.376;2023-04-15T12:44:29;12.90;99.90
39095;DHT22;24840;47.508;19.376;2023-04-15T12:46:56;12.80;99.90
39095;DHT22;24840;47.508;19.376;2023-04-15T12:49:22;12.90;99.90
39095;DHT22;24840;47.508;19.376;2023-04-15T12:51:51;12.60;99.90
39095;DHT22;24840;47.508;19.376;2023-04-15T12:54:18;12.30;99.90
39095;DHT22;24840;47.508;19.376;2023-04-15T12:56:45;12.30;99.90
39095;DHT22;24840;47.508;19.376;2023-04-15T12:59:12;12.30;99.90
39095;DHT22;24840;47.508;19.376;2023-04-15T13:01:38;12.10;99.90
39095;DHT22;24840;47.508;19.376;2023-04-15T13:04:04;11.80;99.90
39095;DHT22;24840;47.508;19.376;2023-04-15T13:06:29;12.00;99.90
39095;DHT22;24840;47.508;19.376;2023-04-15T13:08:58;11.90;99.90
39095;DHT22;24840;47.508;19.376;2023-04-15T13:11:24;11.70;99.90
39095;DHT22;24840;47.508;19.376;2023-04-15T13:13:50;11.80;99.90
39095;DHT22;24840;47.508;19.376;2023-04-15T13:16:17;11.80;99.90
39095;DHT22;24840;47.508;19.376;2023-04-15T13:18:43;11.80;99.90
39095;DHT22;24840;47.508;19.376;2023-04-15T13:21:11;11.80;99.90
39095;DHT22;24840;47.508;19.376;2023-04-15T13:23:37;11.70;99.90
39095;DHT22;24840;47.508;19.376;2023-04-15T13:26:03;11.60;99.90
39095;DHT22;24840;47.508;19.376;2023-04-15T13:28:29;11.60;99.90
39095;DHT22;24840;47.508;19.376;2023-04-15T13:30:54;11.70;99.90
39095;DHT22;24840;47.508;19.376;2023-04-15T13:33:20;11.70;99.90
39095;DHT22;24840;47.508;19.376;2023-04-15T13:35:46;11.70;99.90
39095;DHT22;24840;47.508;19.376;2023-04-15T13:38:11;12.00;99.90
39095;DHT22;24840;47.508;19.376;2023-04-15T13:40:37;12.10;99.90
39095;DHT22;24840;47.508;19.376;2023-04-15T13:43:03;12.40;99.90
39095;DHT22;24840;47.508;19.376;2023-04-15T13:45:29;12.60;99.90
39095;DHT22;24840;47.508;19.376;2023-04-15T13:47:55;12.50;99.90
39095;DHT22;24840;47.508;19.376;2023-04-15T13:50:23;12.40;99.90
39095;DHT22;24840;47.508;19.376;2023-04-15T13:52:49;12.00;99.90
39095;DHT22;24840;47.508;19.376;2023-04-15T13:55:15;12.00;99.90
39095;DHT22;24840;47.508;19.376;2023-04-15T13:57:41;12.10;99.90
39095;DHT22;24840;47.508;19.376;2023-04-15T14:00:07;12.00;99.90
39095;DHT22;24840;47.508;19.376;2023-04-15T14:02:33;12.20;99.90
39095;DHT22;24840;47.508;19.376;2023-04-15T14:04:58;12.30;99.90
39095;DHT22;24840;47.508;19.376;2023-04-15T14:07:24;12.30;99.90
39095;DHT22;24840;47.508;19.376;2023-04-15T14:09:50;12.20;99.90
39095;DHT22;24840;47.508;19.376;2023-04-15T14:12:15;12.10;99.90
39095;DHT22;24840;47.508;19.376;2023-04-15T14:14:41;12.20;99.90
39095;DHT22;24840;47.508;19.376;2023-04-15T14:17:07;12.00;99.90
39095;DHT22;24840;47.508;19.376;2023-04-15T14:19:34;12.10;99.90
39095;DHT22;24840;47.508;19.376;2023-04-15T14:22:01;12.10;99.90
39095;DHT22;24840;47.508;19.376;2023-04-15T14:24:27;11.90;99.90
39095;DHT22;24840;47.508;19.376;2023-04-15T14:26:53;12.00;99.90
39095;DHT22;24840;47.508;19.376;2023-04-15T14:29:19;12.20;99.90
39095;DHT22;24840;47.508;19.376;2023-04-15T14:31:45;12.10;99.90
39095;DHT22;24840;47.508;19.376;2023-04-15T14:34:11;12.20;99.90
39095;DHT22;24840;47.508;19.376;2023-04-15T14:36:37;12.10;99.90
39095;DHT22;24840;47.508;19.376;2023-04-15T14:39:03;12.10;99.90
39095;DHT22;24840;47.508;19.376;2023-04-15T14:41:29;12.10;99.90
39095;DHT22;24840;47.508;19.376;2023-04-15T14:43:55;12.00;99.90
39095;DHT22;24840;47.508;19.376;2023-04-15T14:46:21;12.00;99.90
39095;DHT22;24840;47.508;19.376;2023-04-15T14:48:48;11.80;99.90
39095;DHT22;24840;47.508;19.376;2023-04-15T14:51:13;11.70;99.90
39095;DHT22;24840;47.508;19.376;2023-04-15T14:53:40;11.80;99.90
39095;DHT22;24840;47.508;19.376;2023-04-15T14:56:06;11.80;99.90
39095;DHT22;24840;47.508;19.376;2023-04-15T14:58:32;11.80;99.90
39095;DHT22;24840;47.508;19.376;2023-04-15T15:00:58;11.80;99.90
39095;DHT22;24840;47.508;19.376;2023-04-15T15:03:24;11.80;99.90
39095;DHT22;24840;47.508;19.376;2023-04-15T15:05:50;11.80;99.90
39095;DHT22;24840;47.508;19.376;2023-04-15T15:08:16;11.70;99.90
39095;DHT22;24840;47.508;19.376;2023-04-15T15:10:41;11.70;99.90
39095;DHT22;24840;47.508;19.376;2023-04-15T15:13:08;11.80;99.90
39095;DHT22;24840;47.508;19.376;2023-04-15T15:15:35;11.70;99.90
39095;DHT22;24840;47.508;19.376;2023-04-15T15:18:01;11.80;99.90
39095;DHT22;24840;47.508;19.376;2023-04-15T15:20:28;11.90;99.90
39095;DHT22;24840;47.508;19.376;2023-04-15T15:22:54;11.80;99.90
39095;DHT22;24840;47.508;19.376;2023-04-15T15:25:20;11.90;99.90
39095;DHT22;24840;47.508;19.376;2023-04-15T15:27:46;11.80;99.90
39095;DHT22;24840;47.508;19.376;2023-04-15T15:30:12;11.90;99.90
39095;DHT22;24840;47.508;19.376;2023-04-15T15:32:39;11.70;99.90